Time;durP1;ratioP1;P1;durP2;ratioP2;P2;SDS_P1;SDS_P2;PMS_P1;PMS_P2;Temp;Humidity;BMP_temperature;BMP_pressure;BME280_temperature;BME280_humidity;BME280_pressure;Samples;Min_cycle;Max_cycle;Signal;HPM_P1;HPM_P2
2024/04/16 00:04:14;;;;;;;;;;;;;;;20.73;52.10;94165.66;11407722;26;20239;-73
2024/04/16 00:09:15;;;;;;;;;;;;;;;20.60;54.91;94168.44;11409424;26;19928;-73
2024/04/16 00:14:15;;;;;;;;;;;;;;;20.41;57.61;94168.31;11410615;26;19977;-73
2024/04/16 00:19:15;;;;;;;;;;;;;;;20.08;61.97;94166.66;11409153;26;19927;-74
2024/04/16 00:24:16;;;;;;;;;;;;;;;19.88;63.37;94174.69;11405607;26;20336;-73
2024/04/16 00:29:17;;;;;;;;;;;;;;;19.62;65.77;94170.41;11406323;26;20358;-73
2024/04/16 00:34:17;;;;;;;;;;;;;;;19.53;68.18;94177.13;11406533;26;20678;-74
2024/04/16 00:39:17;;;;;;;;;;;;;;;19.45;70.14;94178.84;11408192;26;19927;-73
2024/04/16 00:44:19;;;;;;;;;;;;;;;19.18;71.06;94178.44;11405292;26;20100;-73
2024/04/16 00:49:20;;;;;;;;;;;;;;;19.03;73.62;94184.56;11407190;26;19999;-73
2024/04/16 00:54:22;;;;;;;;;;;;;;;19.10;78.42;94182.06;11407741;26;19928;-73
2024/04/16 00:59:25;;;;;;;;;;;;;;;18.99;76.94;94187.19;11407650;26;19932;-73
2024/04/16 01:04:26;;;;;;;;;;;;;;;18.82;75.98;94184.63;11406523;26;19960;-73
2024/04/16 01:09:26;;;;;;;;;;;;;;;18.55;78.21;94187.66;11407283;26;19934;-73
2024/04/16 01:14:26;;;;;;;;;;;;;;;18.35;81.23;94192.03;11403533;26;19935;-73
2024/04/16 01:19:27;;;;;;;;;;;;;;;18.51;82.60;94181.28;11407616;26;19935;-73
2024/04/16 01:24:27;;;;;;;;;;;;;;;18.27;84.58;94188.25;11405793;26;20423;-73
2024/04/16 01:29:28;;;;;;;;;;;;;;;18.24;84.82;94199.03;11407172;26;20008;-73
2024/04/16 01:34:28;;;;;;;;;;;;;;;17.89;88.98;94204.75;11407323;26;19935;-73
2024/04/16 01:39:28;;;;;;;;;;;;;;;18.03;88.26;94202.56;11405135;26;20599;-73
2024/04/16 01:44:28;;;;;;;;;;;;;;;18.01;89.76;94177.63;11407445;26;19927;-74
2024/04/16 01:49:28;;;;;;;;;;;;;;;17.97;88.61;94189.50;11373062;26;19927;-73
2024/04/16 01:54:29;;;;;;;;;;;;;;;17.68;90.63;94172.94;11404010;26;19927;-73
2024/04/16 01:59:29;;;;;;;;;;;;;;;17.59;90.87;94180.34;11404843;26;20440;-73
2024/04/16 02:04:29;;;;;;;;;;;;;;;17.36;93.96;94175.25;11373687;26;19928;-73
2024/04/16 02:09:33;;;;;;;;;;;;;;;17.25;97.42;94172.09;11405432;26;19932;-73
2024/04/16 02:14:33;;;;;;;;;;;;;;;17.13;95.21;94171.22;11403754;26;20327;-73
2024/04/16 02:19:34;;;;;;;;;;;;;;;17.17;94.38;94164.03;11405121;26;20307;-74
2024/04/16 02:24:34;;;;;;;;;;;;;;;17.34;99.48;94165.81;11403903;26;19939;-73
2024/04/16 02:29:34;;;;;;;;;;;;;;;17.41;96.81;94166.09;11401335;26;20328;-73
2024/04/16 02:34:34;;;;;;;;;;;;;;;17.10;96.99;94161.81;11402996;26;19935;-73
2024/04/16 02:39:35;;;;;;;;;;;;;;;17.23;100.00;94159.97;11388798;26;20231;-73
2024/04/16 02:44:35;;;;;;;;;;;;;;;17.24;98.00;94178.66;11366465;26;19935;-74
2024/04/16 02:49:35;;;;;;;;;;;;;;;17.24;100.00;94158.88;11370105;26;19927;-73
2024/04/16 02:54:36;;;;;;;;;;;;;;;16.95;100.00;94170.53;11370624;26;19935;-73
2024/04/16 02:59:36;;;;;;;;;;;;;;;16.77;100.00;94169.78;11391126;26;19940;-73
2024/04/16 03:04:36;;;;;;;;;;;;;;;16.85;100.00;94161.59;11387536;26;20236;-73
2024/04/16 03:09:36;;;;;;;;;;;;;;;16.89;100.00;94159.84;11401068;26;20247;-73
2024/04/16 03:14:37;;;;;;;;;;;;;;;16.80;100.00;94150.13;11368532;26;19935;-74
2024/04/16 03:19:37;;;;;;;;;;;;;;;16.89;100.00;94140.84;11379450;26;19928;-73
2024/04/16 03:24:37;;;;;;;;;;;;;;;16.79;100.00;94133.06;11401845;26;19927;-74
2024/04/16 03:29:37;;;;;;;;;;;;;;;16.74;100.00;94136.78;11402461;26;19928;-73
2024/04/16 03:34:38;;;;;;;;;;;;;;;16.70;100.00;94133.13;11399328;26;20591;-73
2024/04/16 03:39:38;;;;;;;;;;;;;;;16.64;100.00;94141.75;11406216;26;20402;-73
2024/04/16 03:44:38;;;;;;;;;;;;;;;16.39;100.00;94144.25;11406096;26;19946;-73
2024/04/16 03:49:38;;;;;;;;;;;;;;;16.53;100.00;94142.09;11391728;26;19935;-72
2024/04/16 03:54:39;;;;;;;;;;;;;;;16.65;100.00;94163.13;11398253;26;19932;-72
2024/04/16 04:04:58;;;;;;;;;;;;;;;16.91;98.04;94154.09;11403189;26;19939;-73
2024/04/16 04:09:58;;;;;;;;;;;;;;;17.05;90.89;94170.16;11375159;26;19959;-72
2024/04/16 04:14:58;;;;;;;;;;;;;;;17.13;87.77;94165.81;11408470;26;20749;-72
2024/04/16 04:19:58;;;;;;;;;;;;;;;17.19;87.63;94170.72;11408085;26;19939;-72
2024/04/16 04:24:59;;;;;;;;;;;;;;;17.32;83.53;94165.38;11405294;26;20346;-73
2024/04/16 04:29:59;;;;;;;;;;;;;;;17.23;86.58;94168.13;11406688;26;19927;-73
2024/04/16 04:35:02;;;;;;;;;;;;;;;17.03;89.79;94173.19;11405967;26;19934;-72
2024/04/16 04:40:02;;;;;;;;;;;;;;;17.11;90.33;94187.84;11402006;26;20347;-73
2024/04/16 04:45:07;;;;;;;;;;;;;;;17.20;89.40;94185.88;11370722;26;19927;-75
2024/04/16 04:50:08;;;;;;;;;;;;;;;17.42;85.84;94190.22;11368998;26;19947;-74
2024/04/16 04:55:08;;;;;;;;;;;;;;;17.50;89.39;94179.59;11367859;26;19942;-74
2024/04/16 05:00:08;;;;;;;;;;;;;;;17.55;83.10;94188.38;11405763;26;20384;-74
2024/04/16 05:05:09;;;;;;;;;;;;;;;17.93;90.71;94182.03;11403788;26;19935;-74
2024/04/16 05:10:09;;;;;;;;;;;;;;;18.25;91.35;94155.19;11371679;26;20371;-75
2024/04/16 05:15:09;;;;;;;;;;;;;;;18.50;80.90;94163.38;11402269;26;20722;-75
2024/04/16 05:20:10;;;;;;;;;;;;;;;18.44;87.38;94167.44;11403783;26;19935;-75
2024/04/16 05:25:10;;;;;;;;;;;;;;;18.73;78.70;94147.41;11402848;26;19951;-75
2024/04/16 05:30:10;;;;;;;;;;;;;;;18.83;69.26;94162.50;11372056;26;19935;-75
2024/04/16 05:35:10;;;;;;;;;;;;;;;18.91;68.65;94155.41;11402700;26;19935;-75
2024/04/16 05:40:11;;;;;;;;;;;;;;;19.06;70.12;94148.47;11390754;26;20305;-75
2024/04/16 05:45:11;;;;;;;;;;;;;;;19.21;74.11;94149.72;11368590;26;19927;-76
2024/04/16 05:50:11;;;;;;;;;;;;;;;19.40;63.80;94168.19;11404546;26;19938;-75
2024/04/16 05:55:11;;;;;;;;;;;;;;;19.52;70.71;94160.00;11402780;26;19963;-75
2024/04/16 06:00:13;;;;;;;;;;;;;;;19.57;78.94;94167.94;11401742;26;20578;-74
2024/04/16 06:05:14;;;;;;;;;;;;;;;19.57;62.84;94158.97;11401042;26;19927;-73
2024/04/16 06:10:14;;;;;;;;;;;;;;;19.95;70.22;94146.81;11403772;26;20430;-74
2024/04/16 06:15:14;;;;;;;;;;;;;;;19.99;57.97;94136.81;11402905;26;19964;-75
2024/04/16 06:20:14;;;;;;;;;;;;;;;20.06;69.37;94144.41;11397016;26;19938;-74
2024/04/16 06:25:15;;;;;;;;;;;;;;;20.20;66.58;94122.94;11402252;26;19927;-75
2024/04/16 06:30:15;;;;;;;;;;;;;;;20.34;71.04;94124.47;11397967;26;19959;-75
2024/04/16 06:35:15;;;;;;;;;;;;;;;20.53;70.60;94121.84;11397538;26;19996;-75
2024/04/16 06:40:16;;;;;;;;;;;;;;;20.80;74.37;94112.00;11403169;26;20250;-75
2024/04/16 06:45:17;;;;;;;;;;;;;;;21.06;67.89;94094.25;11402094;26;20227;-75
2024/04/16 06:50:17;;;;;;;;;;;;;;;21.20;53.88;94076.63;11403423;26;19935;-75
2024/04/16 06:55:17;;;;;;;;;;;;;;;21.07;53.12;94086.84;11399201;26;19936;-75
2024/04/16 07:00:17;;;;;;;;;;;;;;;20.94;52.80;94076.03;11396417;26;19956;-75
2024/04/16 07:05:18;;;;;;;;;;;;;;;20.57;57.68;94075.50;11402271;26;20291;-75
2024/04/16 07:10:18;;;;;;;;;;;;;;;20.35;62.47;94085.13;11367263;26;19935;-75
2024/04/16 07:15:18;;;;;;;;;;;;;;;20.16;67.98;94081.13;11407753;26;19928;-74
2024/04/16 07:20:19;;;;;;;;;;;;;;;20.46;56.19;94072.53;11377956;26;20625;-74
2024/04/16 07:25:19;;;;;;;;;;;;;;;20.52;53.71;94056.69;11408336;26;19932;-74
2024/04/16 07:30:19;;;;;;;;;;;;;;;20.94;52.90;94062.38;11405471;26;20228;-74
2024/04/16 07:35:19;;;;;;;;;;;;;;;21.31;50.70;94051.09;11409868;26;19927;-74
2024/04/16 07:40:20;;;;;;;;;;;;;;;21.73;51.75;94046.88;11407021;26;19934;-74
2024/04/16 07:45:20;;;;;;;;;;;;;;;21.76;47.85;94057.09;11408391;26;20005;-75
2024/04/16 07:50:20;;;;;;;;;;;;;;;22.15;48.93;94048.03;11406411;26;19927;-75
2024/04/16 07:55:20;;;;;;;;;;;;;;;22.26;51.27;94061.91;11407090;26;19928;-75
2024/04/16 08:00:21;;;;;;;;;;;;;;;22.28;48.94;94048.63;11395338;26;20577;-74
2024/04/16 08:05:21;;;;;;;;;;;;;;;22.43;48.12;94049.72;11392315;26;19947;-75
2024/04/16 08:10:21;;;;;;;;;;;;;;;22.42;50.69;94032.47;11407336;26;20331;-74
2024/04/16 08:15:22;;;;;;;;;;;;;;;22.60;57.36;94053.88;11374171;26;20394;-74
2024/04/16 08:20:22;;;;;;;;;;;;;;;22.80;46.69;94044.44;11406911;26;20238;-74
2024/04/16 08:25:22;;;;;;;;;;;;;;;22.83;48.77;94024.50;11407504;26;19931;-74
2024/04/16 08:30:23;;;;;;;;;;;;;;;22.38;46.09;94008.94;11373851;26;19951;-75
2024/04/16 08:35:26;;;;;;;;;;;;;;;22.28;48.89;94029.47;11407029;26;19934;-74
2024/04/16 08:40:27;;;;;;;;;;;;;;;22.42;49.72;94012.53;11406160;26;20687;-74
2024/04/16 08:45:27;;;;;;;;;;;;;;;22.58;52.19;94024.13;11372400;26;20005;-74
2024/04/16 08:50:28;;;;;;;;;;;;;;;22.90;57.18;94029.31;11371155;26;20151;-74
2024/04/16 08:55:29;;;;;;;;;;;;;;;23.45;53.28;94011.66;11403450;26;19934;-74
2024/04/16 09:00:31;;;;;;;;;;;;;;;23.78;47.00;94007.31;11406152;26;20013;-74
2024/04/16 09:05:32;;;;;;;;;;;;;;;24.20;47.23;94011.69;11371930;26;20329;-75
2024/04/16 09:10:32;;;;;;;;;;;;;;;24.50;42.17;94002.53;11404755;26;19953;-74
2024/04/16 09:15:37;;;;;;;;;;;;;;;24.61;42.05;93997.94;11404577;26;19928;-74
2024/04/16 09:20:37;;;;;;;;;;;;;;;24.49;41.51;93995.44;11402457;26;19935;-74
2024/04/16 09:25:38;;;;;;;;;;;;;;;24.35;41.08;93990.63;11403563;26;19983;-74
2024/04/16 09:30:38;;;;;;;;;;;;;;;24.39;40.89;93988.69;11405461;26;19928;-74
2024/04/16 09:35:41;;;;;;;;;;;;;;;24.48;37.99;93971.91;11369863;26;20083;-73
2024/04/16 09:40:42;;;;;;;;;;;;;;;24.64;37.72;93972.44;11401864;26;20230;-76
2024/04/16 09:45:43;;;;;;;;;;;;;;;24.74;37.86;93952.50;11400822;26;19927;-74
2024/04/16 09:50:44;;;;;;;;;;;;;;;24.63;37.63;93943.41;11401039;26;19995;-74
2024/04/16 09:55:44;;;;;;;;;;;;;;;24.64;39.00;93947.69;11402299;26;20251;-74
2024/04/16 10:00:45;;;;;;;;;;;;;;;24.46;37.95;93930.28;11404682;26;19927;-74
2024/04/16 10:05:46;;;;;;;;;;;;;;;24.19;37.64;93925.78;11403694;26;20520;-75
2024/04/16 10:10:46;;;;;;;;;;;;;;;24.25;37.49;93912.47;11404355;26;19927;-75
2024/04/16 10:15:47;;;;;;;;;;;;;;;24.37;37.94;93898.44;11399327;26;19955;-74
2024/04/16 10:20:48;;;;;;;;;;;;;;;24.48;37.64;93903.25;11370738;26;19935;-74
2024/04/16 10:25:49;;;;;;;;;;;;;;;24.65;38.66;93899.06;11404493;26;20633;-74
2024/04/16 10:30:57;;;;;;;;;;;;;;;24.76;36.56;93883.41;11402725;26;19927;-74
2024/04/16 10:35:57;;;;;;;;;;;;;;;24.83;37.46;93879.91;11383681;26;20008;-74
2024/04/16 10:40:58;;;;;;;;;;;;;;;24.84;36.27;93873.22;11396481;26;19999;-74
2024/04/16 10:45:58;;;;;;;;;;;;;;;24.99;37.46;93863.88;11402997;26;19927;-74
2024/04/16 10:50:58;;;;;;;;;;;;;;;24.91;35.91;93856.78;11384054;26;19931;-74
2024/04/16 10:55:58;;;;;;;;;;;;;;;24.73;35.21;93852.00;11400540;26;20027;-73
2024/04/16 11:00:59;;;;;;;;;;;;;;;24.74;35.80;93856.31;11417463;26;20003;-74
2024/04/16 11:05:59;;;;;;;;;;;;;;;24.96;38.79;93845.41;11415092;26;19938;-74
2024/04/16 11:10:59;;;;;;;;;;;;;;;24.76;36.49;93853.19;11418191;26;19927;-74
2024/04/16 11:15:59;;;;;;;;;;;;;;;24.78;34.74;93850.03;11418243;26;20350;-74
2024/04/16 11:21:00;;;;;;;;;;;;;;;24.75;35.32;93862.59;11418125;26;20252;-74
2024/04/16 11:26:00;;;;;;;;;;;;;;;24.84;34.92;93853.97;11418956;26;20351;-74
2024/04/16 11:31:01;;;;;;;;;;;;;;;24.97;35.61;93855.22;11384474;26;19935;-74
2024/04/16 11:36:02;;;;;;;;;;;;;;;25.01;35.25;93852.50;11417943;26;20258;-74
2024/04/16 11:41:03;;;;;;;;;;;;;;;25.00;33.73;93851.69;11416698;26;19927;-74
2024/04/16 11:46:04;;;;;;;;;;;;;;;25.15;36.27;93849.00;11416913;26;20358;-74
2024/04/16 11:51:07;;;;;;;;;;;;;;;25.04;35.22;93836.00;11416874;26;19935;-73
2024/04/16 11:56:08;;;;;;;;;;;;;;;25.29;36.97;93815.25;11401877;26;19934;-74
2024/04/16 12:01:11;;;;;;;;;;;;;;;25.27;34.83;93812.91;11392126;26;20358;-73
2024/04/16 12:06:11;;;;;;;;;;;;;;;25.28;35.10;93794.44;11392174;26;19996;-74
2024/04/16 12:11:12;;;;;;;;;;;;;;;25.31;36.02;93785.41;11406691;26;20252;-74
2024/04/16 12:16:12;;;;;;;;;;;;;;;25.47;33.19;93774.84;11407772;26;19927;-74
2024/04/16 12:21:12;;;;;;;;;;;;;;;25.84;35.49;93748.84;11395937;26;20346;-74
2024/04/16 12:26:13;;;;;;;;;;;;;;;26.30;34.83;93732.66;11408071;26;19934;-74
2024/04/16 12:31:13;;;;;;;;;;;;;;;26.10;34.04;93711.88;11406529;26;20020;-74
2024/04/16 12:36:14;;;;;;;;;;;;;;;25.99;33.57;93722.09;11383850;26;19928;-74
2024/04/16 12:41:14;;;;;;;;;;;;;;;25.92;31.45;93717.38;11373451;26;19928;-74
2024/04/16 12:46:15;;;;;;;;;;;;;;;25.49;31.82;93711.16;11406050;26;19927;-74
2024/04/16 12:51:15;;;;;;;;;;;;;;;25.38;31.92;93706.47;11406598;26;19977;-74
2024/04/16 12:56:15;;;;;;;;;;;;;;;25.64;32.78;93703.69;11399909;26;19938;-74
2024/04/16 13:01:16;;;;;;;;;;;;;;;25.63;31.30;93700.13;11386867;26;19927;-74
2024/04/16 13:06:16;;;;;;;;;;;;;;;25.44;33.02;93690.34;11395404;26;19927;-74
2024/04/16 13:11:16;;;;;;;;;;;;;;;25.56;31.74;93700.16;11406301;26;19935;-74
2024/04/16 13:16:16;;;;;;;;;;;;;;;25.48;32.31;93684.81;11373481;26;19935;-72
2024/04/16 13:21:17;;;;;;;;;;;;;;;25.19;32.88;93673.84;11401192;26;19951;-74
2024/04/16 13:26:17;;;;;;;;;;;;;;;25.24;32.38;93678.91;11404352;26;20362;-72
2024/04/16 13:31:17;;;;;;;;;;;;;;;25.23;32.89;93669.91;11403664;26;19939;-72
2024/04/16 13:36:18;;;;;;;;;;;;;;;25.08;32.50;93669.09;11405431;26;20236;-72
2024/04/16 13:41:18;;;;;;;;;;;;;;;24.97;32.62;93662.81;11400544;26;20011;-70
2024/04/16 13:46:18;;;;;;;;;;;;;;;24.88;32.46;93667.91;11400257;26;19927;-72
2024/04/16 13:51:18;;;;;;;;;;;;;;;24.79;32.54;93659.28;11403106;26;19935;-72
2024/04/16 13:56:19;;;;;;;;;;;;;;;24.74;32.68;93652.19;11403745;26;20346;-72
2024/04/16 14:01:20;;;;;;;;;;;;;;;24.65;33.97;93655.31;11371493;26;19935;-73
2024/04/16 14:06:20;;;;;;;;;;;;;;;24.71;32.79;93655.72;11400084;26;19931;-72
2024/04/16 14:11:21;;;;;;;;;;;;;;;24.58;32.55;93645.06;11403090;26;19927;-72
2024/04/16 14:16:22;;;;;;;;;;;;;;;24.50;32.80;93640.75;11370187;26;19936;-73
2024/04/16 14:21:22;;;;;;;;;;;;;;;24.59;33.11;93632.13;11402190;26;20342;-72
2024/04/16 14:26:24;;;;;;;;;;;;;;;24.64;32.71;93625.47;11401442;26;19928;-74
2024/04/16 14:31:24;;;;;;;;;;;;;;;24.83;31.94;93613.34;11356727;26;20355;-73
2024/04/16 14:36:25;;;;;;;;;;;;;;;24.86;32.14;93610.56;11403262;26;20019;-74
2024/04/16 14:41:25;;;;;;;;;;;;;;;24.72;31.38;93608.59;11397975;26;20222;-74
2024/04/16 14:46:25;;;;;;;;;;;;;;;24.73;31.84;93599.19;11395845;26;19938;-75
2024/04/16 14:51:25;;;;;;;;;;;;;;;24.80;32.18;93595.66;11402288;26;19928;-74
2024/04/16 14:56:25;;;;;;;;;;;;;;;24.71;31.91;93598.81;11400901;26;20222;-75
2024/04/16 15:01:26;;;;;;;;;;;;;;;24.57;32.14;93598.75;11402831;26;19927;-74
2024/04/16 15:06:26;;;;;;;;;;;;;;;24.50;32.16;93599.56;11368716;26;20382;-75
2024/04/16 15:11:26;;;;;;;;;;;;;;;24.46;32.36;93595.22;11368007;26;19928;-74
2024/04/16 15:16:26;;;;;;;;;;;;;;;24.43;32.80;93588.53;11401379;26;19935;-74
2024/04/16 15:21:27;;;;;;;;;;;;;;;24.48;33.84;93587.38;11398414;26;19939;-74
2024/04/16 15:26:27;;;;;;;;;;;;;;;24.61;32.66;93590.56;11398752;26;19935;-74
2024/04/16 15:31:27;;;;;;;;;;;;;;;24.62;33.33;93573.69;11367848;26;19934;-74
2024/04/16 15:36:27;;;;;;;;;;;;;;;24.59;33.39;93579.94;11399534;26;19935;-75
2024/04/16 15:41:28;;;;;;;;;;;;;;;24.64;33.36;93576.03;11406839;26;20299;-75
2024/04/16 15:46:28;;;;;;;;;;;;;;;24.73;32.93;93568.19;11405873;26;19931;-75
2024/04/16 15:51:28;;;;;;;;;;;;;;;24.60;33.21;93554.03;11406120;26;19934;-75
2024/04/16 15:56:28;;;;;;;;;;;;;;;24.69;34.96;93540.72;11407382;26;20359;-75
2024/04/16 16:01:31;;;;;;;;;;;;;;;24.70;36.14;93544.25;11406211;26;19927;-75
2024/04/16 16:06:33;;;;;;;;;;;;;;;24.37;33.75;93532.44;11398980;26;19939;-74
2024/04/16 16:11:33;;;;;;;;;;;;;;;24.12;35.00;93535.16;11398413;26;19931;-73
2024/04/16 16:16:33;;;;;;;;;;;;;;;24.02;34.80;93529.25;11406071;26;20393;-74
2024/04/16 16:21:33;;;;;;;;;;;;;;;24.02;35.69;93533.94;11404626;26;19939;-74
2024/04/16 16:26:33;;;;;;;;;;;;;;;23.91;36.07;93528.44;11404338;26;20259;-74
2024/04/16 16:31:34;;;;;;;;;;;;;;;23.88;35.84;93532.72;11406121;26;19928;-74
2024/04/16 16:36:35;;;;;;;;;;;;;;;23.74;36.59;93529.91;11405808;26;19927;-76
2024/04/16 16:41:37;;;;;;;;;;;;;;;23.52;34.42;93523.56;11369819;26;20025;-83
2024/04/16 16:46:37;;;;;;;;;;;;;;;23.44;35.59;93513.75;11365469;25;20260;-74
2024/04/16 16:51:38;;;;;;;;;;;;;;;23.27;35.19;93516.00;11366155;26;19927;-78
2024/04/16 16:56:38;;;;;;;;;;;;;;;23.17;35.34;93520.25;11403062;26;19959;-75
2024/04/16 17:01:38;;;;;;;;;;;;;;;23.19;35.52;93517.94;11389387;26;20441;-75
2024/04/16 17:06:39;;;;;;;;;;;;;;;23.20;36.13;93526.94;11404219;26;19927;-74
2024/04/16 17:11:39;;;;;;;;;;;;;;;23.01;35.77;93515.06;11363301;26;19928;-75
2024/04/16 17:16:40;;;;;;;;;;;;;;;22.89;35.96;93511.88;11398067;26;19927;-75
2024/04/16 17:21:40;;;;;;;;;;;;;;;22.88;36.39;93508.31;11394376;26;19935;-76
2024/04/16 17:26:40;;;;;;;;;;;;;;;22.86;36.30;93513.41;11364770;26;19967;-74
2024/04/16 17:31:41;;;;;;;;;;;;;;;22.86;36.11;93510.66;11362758;26;19955;-75
2024/04/16 17:36:41;;;;;;;;;;;;;;;22.82;37.10;93509.88;11367504;26;19951;-75
2024/04/16 17:41:41;;;;;;;;;;;;;;;22.71;37.49;93498.81;11400290;26;19946;-73
2024/04/16 17:46:41;;;;;;;;;;;;;;;22.72;36.78;93497.66;11402903;26;19934;-76
2024/04/16 17:51:42;;;;;;;;;;;;;;;22.67;37.54;93507.00;11403489;26;19927;-75
2024/04/16 17:56:42;;;;;;;;;;;;;;;22.57;36.80;93512.44;11390235;26;20003;-78
2024/04/16 18:01:42;;;;;;;;;;;;;;;22.63;36.43;93511.69;11392147;26;20246;-79
2024/04/16 18:06:43;;;;;;;;;;;;;;;22.64;37.48;93512.47;11399449;26;19935;-78
2024/04/16 18:11:44;;;;;;;;;;;;;;;22.26;38.40;93542.63;11402737;26;20366;-76
2024/04/16 18:16:44;;;;;;;;;;;;;;;22.15;38.04;93526.13;11390125;26;19947;-73
2024/04/16 18:21:44;;;;;;;;;;;;;;;22.19;38.42;93524.19;11399427;26;19979;-71
2024/04/16 18:26:44;;;;;;;;;;;;;;;22.07;38.82;93543.63;11388795;26;19977;-75
2024/04/16 18:31:45;;;;;;;;;;;;;;;21.95;39.83;93544.69;11372232;26;19943;-77
2024/04/16 18:36:45;;;;;;;;;;;;;;;22.04;40.36;93551.81;11378911;26;19927;-77
2024/04/16 18:41:45;;;;;;;;;;;;;;;21.89;41.24;93559.84;11399446;25;19928;-77
2024/04/16 18:46:45;;;;;;;;;;;;;;;21.82;40.54;93563.31;11357709;26;20346;-75
2024/04/16 18:51:46;;;;;;;;;;;;;;;21.75;41.60;93573.38;11402070;26;20254;-75
2024/04/16 18:56:46;;;;;;;;;;;;;;;21.72;42.25;93558.50;11401920;26;19928;-76
2024/04/16 19:01:46;;;;;;;;;;;;;;;21.74;41.85;93569.06;11400242;26;20262;-79
2024/04/16 19:06:46;;;;;;;;;;;;;;;21.68;42.71;93554.94;11404241;26;19935;-78
2024/04/16 19:11:47;;;;;;;;;;;;;;;21.45;44.88;93557.75;11407969;26;19934;-79
2024/04/16 19:16:48;;;;;;;;;;;;;;;21.58;44.69;93550.91;11405291;26;19938;-77
2024/04/16 19:21:48;;;;;;;;;;;;;;;21.48;46.98;93544.13;11396747;26;19959;-76
2024/04/16 19:26:49;;;;;;;;;;;;;;;21.30;51.30;93546.63;11408435;26;19935;-75
2024/04/16 19:31:49;;;;;;;;;;;;;;;21.21;55.02;93543.41;11408873;26;20469;-75
2024/04/16 19:36:50;;;;;;;;;;;;;;;20.90;57.60;93534.38;11365065;26;19931;-76
2024/04/16 19:41:50;;;;;;;;;;;;;;;20.65;60.23;93540.25;11401472;26;19934;-75
2024/04/16 19:46:50;;;;;;;;;;;;;;;20.35;63.95;93507.41;11401088;26;20633;-76
2024/04/16 19:51:50;;;;;;;;;;;;;;;20.44;65.70;93494.28;11397987;26;19938;-75
2024/04/16 19:56:51;;;;;;;;;;;;;;;20.44;66.63;93515.31;11394876;26;20246;-76
2024/04/16 20:01:51;;;;;;;;;;;;;;;20.13;69.87;93528.06;11372318;26;20354;-75
2024/04/16 20:06:51;;;;;;;;;;;;;;;20.03;72.67;93523.22;11407583;26;20002;-76
2024/04/16 20:11:52;;;;;;;;;;;;;;;20.00;74.79;93510.34;11408543;26;19942;-76
2024/04/16 20:16:52;;;;;;;;;;;;;;;20.05;75.63;93510.81;11402996;26;20347;-75
2024/04/16 20:21:55;;;;;;;;;;;;;;;20.05;76.79;93513.53;11373290;26;20290;-75
2024/04/16 20:26:55;;;;;;;;;;;;;;;19.79;78.03;93490.47;11401275;26;19939;-75
2024/04/16 20:31:56;;;;;;;;;;;;;;;19.86;78.90;93497.22;11408565;26;19942;-75
2024/04/16 20:36:56;;;;;;;;;;;;;;;19.87;79.92;93490.59;11406947;26;19927;-75
2024/04/16 20:41:56;;;;;;;;;;;;;;;19.85;80.36;93490.19;11406232;26;19934;-75
2024/04/16 20:46:56;;;;;;;;;;;;;;;19.84;82.64;93488.59;11405852;26;19942;-75
2024/04/16 20:51:57;;;;;;;;;;;;;;;19.68;83.31;93478.56;11406019;26;20613;-76
2024/04/16 20:56:57;;;;;;;;;;;;;;;19.60;84.88;93485.81;11402952;26;19927;-76
2024/04/16 21:01:57;;;;;;;;;;;;;;;19.49;88.15;93498.47;11407346;26;19957;-75
2024/04/16 21:06:57;;;;;;;;;;;;;;;19.17;93.52;93493.16;11403311;26;19927;-74
2024/04/16 21:11:58;;;;;;;;;;;;;;;19.15;100.00;93498.19;11402257;26;19927;-74
2024/04/16 21:16:58;;;;;;;;;;;;;;;18.84;100.00;93496.31;11406898;26;19937;-74
2024/04/16 21:21:58;;;;;;;;;;;;;;;18.93;100.00;93499.69;11405769;26;19927;-75
2024/04/16 21:26:58;;;;;;;;;;;;;;;19.01;100.00;93509.56;11399724;26;20009;-75
2024/04/16 21:31:59;;;;;;;;;;;;;;;18.87;100.00;93507.34;11405277;26;19940;-74
2024/04/16 21:36:59;;;;;;;;;;;;;;;18.83;100.00;93516.53;11396483;26;19928;-74
2024/04/16 21:41:59;;;;;;;;;;;;;;;18.76;100.00;93525.34;11398960;26;20695;-74
2024/04/16 21:46:59;;;;;;;;;;;;;;;18.91;100.00;93540.88;11405497;26;19928;-75
2024/04/16 21:52:00;;;;;;;;;;;;;;;18.92;100.00;93541.66;11406427;26;20311;-75
2024/04/16 21:57:00;;;;;;;;;;;;;;;18.84;100.00;93529.81;11404501;26;19927;-75
2024/04/16 22:02:00;;;;;;;;;;;;;;;18.75;100.00;93499.25;11405356;26;20231;-75
2024/04/16 22:07:00;;;;;;;;;;;;;;;18.79;100.00;93478.34;11406404;26;19998;-74
2024/04/16 22:12:01;;;;;;;;;;;;;;;18.66;100.00;93463.31;11400781;26;19927;-75
2024/04/16 22:17:01;;;;;;;;;;;;;;;18.65;100.00;93440.72;11402688;26;20366;-74
2024/04/16 22:22:01;;;;;;;;;;;;;;;18.72;100.00;93434.66;11400077;26;19928;-77
2024/04/16 22:27:02;;;;;;;;;;;;;;;18.67;100.00;93424.03;11404160;26;19928;-75
2024/04/16 22:32:02;;;;;;;;;;;;;;;18.59;100.00;93415.72;11398975;26;19940;-75
2024/04/16 22:37:02;;;;;;;;;;;;;;;18.59;100.00;93410.28;11402738;26;19996;-75
2024/04/16 22:42:03;;;;;;;;;;;;;;;18.56;100.00;93404.78;11393473;26;19927;-76
2024/04/16 22:47:03;;;;;;;;;;;;;;;18.42;100.00;93392.44;11400091;26;19928;-76
2024/04/16 22:52:03;;;;;;;;;;;;;;;18.10;100.00;93394.47;11400617;26;19931;-73
2024/04/16 22:57:04;;;;;;;;;;;;;;;18.21;100.00;93406.38;11403953;26;19931;-76
2024/04/16 23:02:04;;;;;;;;;;;;;;;18.21;100.00;93387.31;11397040;26;20263;-74
2024/04/16 23:07:05;;;;;;;;;;;;;;;18.14;100.00;93370.06;11390518;26;19931;-74
2024/04/16 23:12:05;;;;;;;;;;;;;;;18.20;100.00;93380.31;11400848;26;20295;-74
2024/04/16 23:17:05;;;;;;;;;;;;;;;18.15;100.00;93386.00;11369003;26;19927;-75
2024/04/16 23:22:05;;;;;;;;;;;;;;;18.01;100.00;93396.56;11391421;26;20678;-74
2024/04/16 23:27:06;;;;;;;;;;;;;;;18.05;100.00;93381.91;11393238;26;19935;-74
2024/04/16 23:32:06;;;;;;;;;;;;;;;17.99;100.00;93371.69;11400634;26;19934;-74
2024/04/16 23:37:06;;;;;;;;;;;;;;;17.76;100.00;93359.50;11393839;26;19928;-75
2024/04/16 23:42:07;;;;;;;;;;;;;;;17.74;100.00;93359.03;11364895;26;19996;-75
2024/04/16 23:47:08;;;;;;;;;;;;;;;17.59;100.00;93355.19;11364608;26;19959;-74
2024/04/16 23:52:08;;;;;;;;;;;;;;;17.49;100.00;93355.72;11396089;26;19934;-73
2024/04/16 23:57:08;;;;;;;;;;;;;;;17.57;100.00;93352.03;11361628;26;19959;-76
